Time;durP1;ratioP1;P1;durP2;ratioP2;P2;SDS_P1;SDS_P2;PMS_P1;PMS_P2;Temp;Humidity;BMP_temperature;BMP_pressure;BME280_temperature;BME280_humidity;BME280_pressure;Samples;Min_cycle;Max_cycle;Signal;HPM_P1;HPM_P2
2021/10/18 00:00:37;;;;;;;45.30;26.52;;;;;;;4.50;88.22;101122.91;5024628;28;20132;-68
2021/10/18 00:03:03;;;;;;;38.53;25.25;;;;;;;4.49;88.17;101123.84;5026153;28;20029;-68
2021/10/18 00:05:28;;;;;;;38.40;23.88;;;;;;;4.44;88.12;101124.09;5044412;28;20381;-68
2021/10/18 00:07:53;;;;;;;45.67;25.00;;;;;;;4.43;87.75;101125.03;5045521;28;20033;-68
2021/10/18 00:10:19;;;;;;;42.30;24.77;;;;;;;4.40;88.21;101119.00;5045818;28;20017;-68
2021/10/18 00:12:45;;;;;;;44.80;24.98;;;;;;;4.34;88.86;101111.34;5045786;28;20025;-67
2021/10/18 00:15:14;;;;;;;43.20;24.55;;;;;;;4.41;89.58;101121.59;5032473;28;20052;-68
2021/10/18 00:17:39;;;;;;;41.60;24.02;;;;;;;4.39;89.28;101128.75;5037651;28;20115;-68
2021/10/18 00:20:08;;;;;;;43.10;25.88;;;;;;;4.39;89.24;101125.25;5039240;28;20501;-68
2021/10/18 00:22:34;;;;;;;44.47;25.23;;;;;;;4.35;90.01;101121.00;5045300;28;20094;-67
2021/10/18 00:24:59;;;;;;;43.45;25.50;;;;;;;4.38;90.64;101136.78;5029348;28;20021;-67
2021/10/18 00:27:25;;;;;;;41.28;25.88;;;;;;;4.30;91.52;101113.31;5029237;28;20472;-67
2021/10/18 00:29:50;;;;;;;41.33;23.90;;;;;;;4.35;91.76;101132.50;5044685;28;20052;-68
2021/10/18 00:32:16;;;;;;;40.42;24.38;;;;;;;4.42;91.55;101141.03;5029433;28;20051;-68
2021/10/18 00:34:41;;;;;;;42.80;24.42;;;;;;;4.39;91.41;101135.88;5030673;28;20029;-67
2021/10/18 00:37:07;;;;;;;42.75;25.23;;;;;;;4.39;90.54;101138.53;5039555;28;20037;-68
2021/10/18 00:39:32;;;;;;;42.38;24.48;;;;;;;4.35;90.27;101131.63;5049653;28;20041;-67
2021/10/18 00:41:58;;;;;;;38.65;23.00;;;;;;;4.38;90.36;101145.63;5048617;28;20021;-68
2021/10/18 00:44:23;;;;;;;39.35;24.13;;;;;;;4.35;89.98;101147.56;5033021;28;20393;-68
2021/10/18 00:46:49;;;;;;;42.63;24.98;;;;;;;4.33;89.35;101146.78;5039590;28;20036;-68
2021/10/18 00:49:14;;;;;;;40.42;23.77;;;;;;;4.32;89.30;101140.63;5044239;28;20374;-68
2021/10/18 00:51:40;;;;;;;41.42;22.88;;;;;;;4.31;89.05;101141.56;5048957;28;20512;-68
2021/10/18 00:54:06;;;;;;;41.95;24.15;;;;;;;4.24;89.02;101131.31;5048799;28;20032;-68
2021/10/18 00:56:31;;;;;;;41.95;25.42;;;;;;;4.30;88.99;101152.25;5049138;28;20032;-67
2021/10/18 00:59:00;;;;;;;41.38;23.85;;;;;;;4.24;89.50;101139.28;5031451;28;20029;-69
2021/10/18 01:01:26;;;;;;;41.88;24.30;;;;;;;4.20;89.68;101141.22;5028837;28;20036;-67
2021/10/18 01:03:51;;;;;;;38.75;22.88;;;;;;;4.20;89.42;101138.56;5042965;28;20033;-67
2021/10/18 01:06:17;;;;;;;36.63;22.90;;;;;;;4.11;89.14;101125.75;5044150;28;20474;-68
2021/10/18 01:08:42;;;;;;;39.33;21.83;;;;;;;4.14;88.88;101130.03;5027645;28;20065;-67
2021/10/18 01:11:08;;;;;;;41.15;23.02;;;;;;;4.04;88.90;101123.47;5028247;28;20526;-68
2021/10/18 01:13:34;;;;;;;39.70;23.70;;;;;;;4.12;88.88;101140.72;5025382;28;20040;-67
2021/10/18 01:16:05;;;;;;;36.10;22.70;;;;;;;4.06;89.70;101130.41;5023623;28;20026;-69
2021/10/18 01:18:31;;;;;;;39.58;24.10;;;;;;;4.04;90.12;101134.94;5025963;28;20021;-67
2021/10/18 01:20:57;;;;;;;39.58;23.60;;;;;;;4.00;90.38;101124.56;5028865;28;20033;-69
2021/10/18 01:23:22;;;;;;;42.47;23.48;;;;;;;4.04;90.63;101134.06;5024707;28;20017;-68
2021/10/18 01:25:47;;;;;;;42.17;23.73;;;;;;;4.00;90.45;101132.50;5027214;28;20072;-68
2021/10/18 01:28:13;;;;;;;36.72;22.23;;;;;;;4.02;90.82;101136.81;5024898;28;20463;-69
2021/10/18 01:30:39;;;;;;;38.28;23.30;;;;;;;3.99;91.65;101139.59;5028934;28;20041;-68
2021/10/18 01:33:04;;;;;;;38.55;23.35;;;;;;;3.94;92.13;101128.34;5020330;28;20092;-69
2021/10/18 01:35:30;;;;;;;34.90;21.35;;;;;;;3.98;91.63;101134.38;5033313;28;20029;-67
2021/10/18 01:37:55;;;;;;;34.38;22.15;;;;;;;3.96;90.49;101139.75;5018909;28;20018;-69
2021/10/18 01:40:23;;;;;;;36.63;21.58;;;;;;;4.02;89.92;101152.72;5027498;28;20368;-68
2021/10/18 01:42:49;;;;;;;36.40;21.00;;;;;;;4.04;89.00;101147.34;5027397;28;20021;-68
2021/10/18 01:45:17;;;;;;;37.00;22.02;;;;;;;3.98;88.60;101142.34;5024059;28;20073;-67
2021/10/18 01:47:43;;;;;;;34.47;21.90;;;;;;;4.02;88.13;101151.84;5029078;28;20147;-67
2021/10/18 01:50:09;;;;;;;42.17;22.73;;;;;;;3.97;87.88;101143.28;5016687;28;20029;-68
2021/10/18 01:52:35;;;;;;;35.53;21.17;;;;;;;3.97;88.28;101148.59;5023031;28;20063;-68
2021/10/18 01:55:01;;;;;;;37.65;22.40;;;;;;;3.94;88.29;101152.22;5029894;28;20151;-68
2021/10/18 01:57:26;;;;;;;36.65;21.90;;;;;;;3.92;88.87;101139.97;5028749;28;20084;-68
2021/10/18 01:59:52;;;;;;;34.10;20.90;;;;;;;3.80;89.63;101119.31;5025757;28;20020;-69
2021/10/18 02:02:17;;;;;;;35.75;22.25;;;;;;;3.88;90.53;101130.44;5032147;28;20035;-67
2021/10/18 02:04:42;;;;;;;33.75;22.25;;;;;;;3.93;90.87;101139.03;5018216;28;20022;-68
2021/10/18 02:07:08;;;;;;;34.03;22.33;;;;;;;3.91;91.04;101138.25;5028141;28;20024;-69
2021/10/18 02:09:33;;;;;;;38.17;22.08;;;;;;;3.91;91.50;101139.13;5027510;28;20034;-67
2021/10/18 02:11:59;;;;;;;41.28;23.65;;;;;;;3.94;91.97;101132.81;5024043;28;20064;-68
2021/10/18 02:14:24;;;;;;;38.05;23.50;;;;;;;3.91;92.84;101139.13;5042559;28;20029;-67
2021/10/18 02:16:50;;;;;;;35.42;22.58;;;;;;;3.88;92.99;101125.13;5046145;28;20382;-67
2021/10/18 02:19:15;;;;;;;42.58;23.42;;;;;;;3.94;93.71;101135.47;5027089;28;20030;-68
2021/10/18 02:21:40;;;;;;;36.97;22.70;;;;;;;3.86;93.80;101126.97;5027654;28;20084;-68
2021/10/18 02:24:06;;;;;;;38.20;23.38;;;;;;;3.91;94.27;101138.25;5027585;28;20534;-68
2021/10/18 02:26:31;;;;;;;42.10;24.42;;;;;;;3.89;94.51;101127.72;5027300;28;20534;-69
2021/10/18 02:28:58;;;;;;;39.38;23.60;;;;;;;3.99;95.29;101133.44;5027229;28;20036;-68
2021/10/18 02:31:24;;;;;;;39.10;21.77;;;;;;;4.03;95.77;101140.34;5027615;28;20423;-67
2021/10/18 02:33:50;;;;;;;38.00;23.30;;;;;;;4.06;96.19;101142.81;5027254;28;20033;-68
2021/10/18 02:36:15;;;;;;;45.03;24.88;;;;;;;4.06;96.34;101132.19;5025540;28;20032;-68
2021/10/18 02:38:41;;;;;;;41.72;23.48;;;;;;;4.09;96.17;101132.03;5027282;28;20029;-69
2021/10/18 02:41:07;;;;;;;35.17;21.50;;;;;;;4.13;96.14;101138.94;5025415;28;20037;-67
2021/10/18 02:43:32;;;;;;;32.92;21.58;;;;;;;4.16;95.72;101142.31;5027097;28;20037;-68
2021/10/18 02:45:58;;;;;;;39.35;22.90;;;;;;;4.18;95.86;101139.56;5025417;28;20091;-68
2021/10/18 02:48:23;;;;;;;37.17;22.05;;;;;;;4.19;95.48;101143.94;5037762;28;20041;-68
2021/10/18 02:50:50;;;;;;;38.17;22.42;;;;;;;4.18;95.14;101135.13;5044362;28;20030;-68
2021/10/18 02:53:16;;;;;;;30.73;20.13;;;;;;;4.20;94.99;101143.88;5046344;28;20071;-67
2021/10/18 02:55:42;;;;;;;37.90;21.20;;;;;;;4.21;94.12;101142.94;5047007;28;20044;-68
2021/10/18 02:58:07;;;;;;;33.03;20.88;;;;;;;4.18;92.99;101143.09;5038241;28;20017;-68
2021/10/18 03:00:32;;;;;;;31.92;20.35;;;;;;;4.24;93.17;101140.16;5041956;28;20433;-67
2021/10/18 03:02:58;;;;;;;33.78;20.00;;;;;;;4.25;92.21;101136.56;5046073;28;20041;-68
2021/10/18 03:05:23;;;;;;;33.47;20.63;;;;;;;4.26;91.77;101142.72;5046463;28;20021;-68
2021/10/18 03:07:52;;;;;;;31.48;19.80;;;;;;;4.23;91.64;101135.75;5046432;28;20471;-67
2021/10/18 03:10:21;;;;;;;33.65;20.48;;;;;;;4.11;91.52;101108.97;5046373;28;20048;-67
2021/10/18 03:12:47;;;;;;;34.80;21.13;;;;;;;4.23;91.89;101142.88;5046480;28;20064;-67
2021/10/18 03:15:13;;;;;;;30.95;21.00;;;;;;;4.21;92.54;101144.72;5045141;28;20079;-68
2021/10/18 03:17:40;;;;;;;32.30;20.33;;;;;;;4.17;93.00;101129.91;5046352;28;20025;-68
2021/10/18 03:20:07;;;;;;;35.80;21.42;;;;;;;4.10;93.23;101133.78;5035859;28;20378;-69
2021/10/18 03:22:33;;;;;;;37.95;20.63;;;;;;;4.16;93.33;101142.31;5038830;28;20668;-67
2021/10/18 03:24:58;;;;;;;32.05;19.77;;;;;;;4.08;93.52;101133.88;5024045;28;20026;-67
2021/10/18 03:27:24;;;;;;;31.00;20.17;;;;;;;4.13;93.55;101150.41;5026476;28;20056;-70
2021/10/18 03:29:49;;;;;;;33.38;21.10;;;;;;;4.14;94.10;101143.31;5026245;28;20025;-68
2021/10/18 03:32:15;;;;;;;31.13;19.80;;;;;;;4.09;93.82;101138.22;5036280;28;20051;-69
2021/10/18 03:34:40;;;;;;;36.38;20.92;;;;;;;4.06;93.43;101129.53;5046587;28;20020;-67
2021/10/18 03:37:06;;;;;;;33.15;20.95;;;;;;;4.10;93.27;101145.25;5044574;28;20459;-67
2021/10/18 03:39:32;;;;;;;34.63;21.83;;;;;;;4.14;93.42;101143.31;5026371;28;20472;-68
2021/10/18 03:41:58;;;;;;;33.33;20.35;;;;;;;4.08;94.26;101140.94;5024699;28;20029;-67
2021/10/18 03:44:23;;;;;;;29.80;21.38;;;;;;;4.12;94.08;101139.88;5034203;28;20048;-67
2021/10/18 03:46:49;;;;;;;33.42;20.85;;;;;;;4.12;94.21;101140.72;5026065;28;20530;-68
2021/10/18 03:49:15;;;;;;;33.83;21.15;;;;;;;4.11;94.05;101149.66;5026042;28;20534;-67
2021/10/18 03:51:41;;;;;;;32.40;20.60;;;;;;;4.08;93.87;101139.16;5026662;28;20036;-68
2021/10/18 03:54:06;;;;;;;33.25;20.65;;;;;;;4.04;94.11;101139.38;5036500;28;20419;-68
2021/10/18 03:56:32;;;;;;;33.70;20.30;;;;;;;4.11;94.24;101144.34;5026922;28;20043;-67
2021/10/18 03:58:57;;;;;;;36.22;20.77;;;;;;;4.08;93.71;101148.91;5043312;28;20025;-67
2021/10/18 04:01:23;;;;;;;35.38;20.00;;;;;;;3.92;93.22;101121.38;5049896;28;20036;-68
2021/10/18 04:03:49;;;;;;;31.80;20.08;;;;;;;4.06;93.30;101148.13;5050040;28;20029;-68
2021/10/18 04:06:14;;;;;;;32.45;19.35;;;;;;;4.04;93.47;101145.56;5049677;28;20055;-68
2021/10/18 04:08:40;;;;;;;30.15;19.50;;;;;;;3.98;93.27;101135.25;5049734;28;20031;-68
2021/10/18 04:11:06;;;;;;;27.90;18.92;;;;;;;4.07;92.65;101161.31;5036466;28;20475;-68
2021/10/18 04:13:31;;;;;;;33.75;19.25;;;;;;;4.01;91.60;101151.03;5029644;28;20029;-67
2021/10/18 04:15:57;;;;;;;34.17;20.38;;;;;;;4.01;91.64;101153.69;5030956;28;20478;-69
2021/10/18 04:18:22;;;;;;;30.33;18.23;;;;;;;3.97;92.23;101156.53;5049485;28;20142;-69
2021/10/18 04:20:48;;;;;;;37.47;19.55;;;;;;;4.05;92.07;101167.63;5036334;28;20092;-68
2021/10/18 04:23:14;;;;;;;34.25;20.15;;;;;;;3.97;92.73;101162.69;5034822;28;20036;-68
2021/10/18 04:25:39;;;;;;;37.30;22.45;;;;;;;4.02;92.15;101165.13;5022567;28;20033;-69
2021/10/18 04:28:05;;;;;;;42.15;24.90;;;;;;;3.96;92.87;101162.75;5027680;28;20065;-67
2021/10/18 04:30:30;;;;;;;47.08;27.70;;;;;;;4.01;93.29;101166.94;5028023;28;20045;-67
2021/10/18 04:32:56;;;;;;;40.75;25.30;;;;;;;4.03;94.26;101173.03;5029994;28;20083;-69
2021/10/18 04:35:22;;;;;;;47.00;27.65;;;;;;;4.07;94.00;101171.09;5028950;28;20124;-69
2021/10/18 04:37:47;;;;;;;50.25;30.30;;;;;;;4.05;94.28;101162.34;5032535;28;20044;-67
2021/10/18 04:40:13;;;;;;;47.50;29.30;;;;;;;4.12;94.62;101172.59;5037746;28;20032;-67
2021/10/18 04:42:39;;;;;;;46.45;28.70;;;;;;;4.11;94.81;101160.25;5050290;28;20071;-67
2021/10/18 04:45:05;;;;;;;51.83;29.40;;;;;;;4.19;95.00;101181.09;5033179;28;20070;-68
2021/10/18 04:47:31;;;;;;;51.65;30.65;;;;;;;4.21;95.27;101181.91;5033158;28;20033;-67
2021/10/18 04:49:56;;;;;;;56.03;31.10;;;;;;;4.20;96.01;101175.72;5040242;28;20048;-68
2021/10/18 04:52:22;;;;;;;47.90;29.88;;;;;;;4.22;96.64;101165.03;5046920;28;20070;-68
2021/10/18 04:54:47;;;;;;;45.95;28.38;;;;;;;4.30;96.89;101170.84;5041639;28;20063;-67
2021/10/18 04:57:13;;;;;;;50.47;30.65;;;;;;;4.21;97.49;101150.03;5035297;28;20036;-67
2021/10/18 04:59:38;;;;;;;55.90;31.52;;;;;;;4.44;98.01;101176.34;5037045;28;20033;-67
2021/10/18 05:02:04;;;;;;;47.47;27.98;;;;;;;4.51;97.96;101185.72;5035963;28;20037;-68
2021/10/18 05:04:30;;;;;;;48.20;31.08;;;;;;;4.53;98.03;101173.22;5040692;28;20018;-67
2021/10/18 05:06:55;;;;;;;46.33;30.30;;;;;;;4.60;97.87;101188.78;5039661;28;20033;-69
2021/10/18 05:09:20;;;;;;;54.05;30.73;;;;;;;4.56;97.80;101173.06;5034533;28;20495;-67
2021/10/18 05:11:46;;;;;;;51.03;30.15;;;;;;;4.66;97.72;101185.84;5032948;28;20037;-67
2021/10/18 05:14:11;;;;;;;64.75;34.58;;;;;;;4.68;97.89;101191.06;5027391;28;20018;-67
2021/10/18 05:16:38;;;;;;;62.53;35.05;;;;;;;4.70;98.53;101186.53;5020854;28;20024;-69
2021/10/18 05:19:03;;;;;;;59.03;34.35;;;;;;;4.80;99.12;101189.59;5029441;28;20029;-68
2021/10/18 05:21:29;;;;;;;56.22;33.20;;;;;;;4.84;99.37;101184.06;5024954;28;20386;-69
2021/10/18 05:23:54;;;;;;;54.25;32.58;;;;;;;4.84;99.63;101189.38;5026127;28;20569;-68
2021/10/18 05:26:19;;;;;;;51.15;30.98;;;;;;;4.82;99.79;101169.09;5032522;28;20104;-69
2021/10/18 05:28:45;;;;;;;62.05;33.17;;;;;;;4.93;99.48;101178.25;5028568;28;20025;-69
2021/10/18 05:31:11;;;;;;;59.53;32.08;;;;;;;5.02;99.62;101188.41;5028492;28;20044;-68
2021/10/18 05:33:36;;;;;;;60.10;32.33;;;;;;;5.08;99.62;101179.25;5026997;28;20024;-69
2021/10/18 05:36:02;;;;;;;57.97;32.80;;;;;;;5.17;100.00;101187.63;5046427;28;20036;-68
2021/10/18 05:38:27;;;;;;;62.63;32.95;;;;;;;5.23;100.00;101191.78;5028733;28;20114;-68
2021/10/18 05:40:54;;;;;;;64.05;33.42;;;;;;;5.27;100.00;101199.50;5028648;28;20108;-68
2021/10/18 05:43:19;;;;;;;67.30;35.05;;;;;;;5.37;100.00;101207.88;5027696;28;20200;-69
2021/10/18 05:45:45;;;;;;;62.55;34.45;;;;;;;5.46;100.00;101221.56;5044913;28;20056;-69
2021/10/18 05:48:15;;;;;;;64.97;32.33;;;;;;;5.50;100.00;101214.25;5047062;28;20040;-69
2021/10/18 05:50:44;;;;;;;49.80;30.75;;;;;;;5.58;100.00;101220.06;5042974;28;20029;-69
2021/10/18 05:53:10;;;;;;;53.20;31.35;;;;;;;5.66;100.00;101226.69;5022543;28;20029;-69
2021/10/18 05:55:35;;;;;;;50.33;30.17;;;;;;;5.72;100.00;101225.50;5025601;28;20048;-68
2021/10/18 05:58:03;;;;;;;55.38;30.75;;;;;;;5.72;100.00;101230.81;5026474;28;20471;-68
2021/10/18 06:00:37;;;;;;;50.60;29.25;;;;;;;5.82;100.00;101234.72;5028380;28;20538;-68
2021/10/18 06:03:02;;;;;;;52.00;30.45;;;;;;;5.86;100.00;101225.63;5046423;28;20060;-69
2021/10/18 06:05:28;;;;;;;51.70;29.63;;;;;;;5.93;100.00;101230.53;5047007;28;20082;-69
2021/10/18 06:08:03;;;;;;;48.58;29.23;;;;;;;6.06;100.00;101244.06;5046768;28;20037;-68
2021/10/18 06:10:28;;;;;;;46.95;28.25;;;;;;;6.15;100.00;101249.75;5035068;28;20043;-68
2021/10/18 06:12:54;;;;;;;46.58;29.92;;;;;;;6.11;100.00;101232.22;5045856;28;20037;-68
2021/10/18 06:15:20;;;;;;;52.78;29.73;;;;;;;6.31;100.00;101255.94;5027121;28;20078;-68
2021/10/18 06:17:46;;;;;;;49.58;29.50;;;;;;;6.32;100.00;101244.34;5027442;28;20460;-69
2021/10/18 06:20:13;;;;;;;46.85;28.63;;;;;;;6.48;100.00;101250.53;5026967;28;20025;-68
2021/10/18 06:22:39;;;;;;;46.78;29.90;;;;;;;6.54;100.00;101250.19;5025729;28;20170;-69
2021/10/18 06:25:06;;;;;;;51.22;29.65;;;;;;;6.67;100.00;101269.00;5025433;28;20033;-68
2021/10/18 06:27:32;;;;;;;55.28;29.20;;;;;;;6.72;100.00;101265.16;5027038;28;20116;-69
2021/10/18 06:29:57;;;;;;;53.22;30.42;;;;;;;6.78;100.00;101269.25;5027053;28;20037;-69
2021/10/18 06:32:23;;;;;;;46.08;30.08;;;;;;;6.92;100.00;101264.84;5026868;28;20021;-69
2021/10/18 06:34:49;;;;;;;51.33;31.35;;;;;;;7.04;100.00;101272.13;5027332;28;20479;-67
2021/10/18 06:37:15;;;;;;;50.60;30.95;;;;;;;7.06;100.00;101257.88;5025468;28;20588;-68
2021/10/18 06:39:40;;;;;;;48.55;30.08;;;;;;;7.20;100.00;101277.44;5029295;28;20104;-69
2021/10/18 06:42:06;;;;;;;52.00;29.52;;;;;;;7.32;100.00;101274.03;5043395;28;20021;-67
2021/10/18 06:44:31;;;;;;;45.72;28.92;;;;;;;7.37;100.00;101273.75;5045231;28;20406;-69
2021/10/18 06:46:57;;;;;;;43.67;28.45;;;;;;;7.45;100.00;101272.34;5029794;28;20025;-69
2021/10/18 06:49:23;;;;;;;44.80;28.27;;;;;;;7.60;100.00;101286.59;5026679;28;20025;-69
2021/10/18 06:51:54;;;;;;;43.33;27.73;;;;;;;7.67;100.00;101285.28;5027046;28;20096;-67
2021/10/18 06:54:20;;;;;;;47.85;27.88;;;;;;;7.72;100.00;101284.06;5040082;28;20328;-69
2021/10/18 06:56:46;;;;;;;48.30;28.98;;;;;;;7.82;100.00;101292.34;5045187;28;20029;-68
2021/10/18 06:59:16;;;;;;;46.03;28.75;;;;;;;7.96;100.00;101297.72;5046564;28;20047;-68
2021/10/18 07:01:42;;;;;;;50.70;30.00;;;;;;;7.97;100.00;101288.75;5045591;28;20029;-68
2021/10/18 07:04:08;;;;;;;48.28;29.83;;;;;;;8.10;100.00;101298.56;5046217;28;20159;-68
2021/10/18 07:06:35;;;;;;;51.88;32.67;;;;;;;8.11;100.00;101291.41;5046360;28;20040;-68
2021/10/18 07:09:02;;;;;;;58.17;35.03;;;;;;;8.28;99.88;101308.16;5037386;28;20483;-69
2021/10/18 07:11:27;;;;;;;71.10;37.38;;;;;;;8.36;99.74;101308.56;5026294;28;20606;-68
2021/10/18 07:13:54;;;;;;;62.20;37.92;;;;;;;8.46;99.74;101307.00;5019897;28;20025;-68
2021/10/18 07:16:19;;;;;;;65.13;38.08;;;;;;;8.57;99.56;101307.16;5029353;28;20024;-69
2021/10/18 07:18:45;;;;;;;60.35;37.63;;;;;;;8.62;98.83;101304.22;5043585;28;20029;-68
2021/10/18 07:21:11;;;;;;;62.00;37.15;;;;;;;8.72;98.12;101316.03;5036649;28;20165;-69
2021/10/18 07:23:37;;;;;;;59.25;35.97;;;;;;;8.77;97.96;101308.59;5046011;28;20048;-69
2021/10/18 07:26:04;;;;;;;62.45;37.47;;;;;;;8.80;97.81;101319.91;5044249;28;20082;-69
2021/10/18 07:28:30;;;;;;;58.03;36.15;;;;;;;8.87;98.03;101323.91;5039464;28;20398;-69
2021/10/18 07:30:58;;;;;;;59.08;35.88;;;;;;;8.94;97.89;101317.19;5024373;28;20036;-68
2021/10/18 07:33:24;;;;;;;57.75;35.13;;;;;;;9.01;97.46;101323.03;5026055;28;20026;-69
2021/10/18 07:35:49;;;;;;;57.92;36.50;;;;;;;9.09;97.38;101318.00;5039441;28;20510;-68
2021/10/18 07:38:15;;;;;;;58.08;37.03;;;;;;;9.18;97.33;101322.75;5045839;28;20025;-67
2021/10/18 07:40:40;;;;;;;60.03;34.92;;;;;;;9.20;97.21;101302.13;5045718;28;20048;-70
2021/10/18 07:43:07;;;;;;;53.75;33.20;;;;;;;9.33;96.67;101309.22;5045615;28;20048;-68
2021/10/18 07:45:32;;;;;;;53.33;33.30;;;;;;;9.45;96.63;101320.09;5044398;28;20071;-67
2021/10/18 07:47:58;;;;;;;44.28;29.40;;;;;;;9.51;96.08;101309.78;5045530;28;20021;-68
2021/10/18 07:50:24;;;;;;;55.13;34.28;;;;;;;9.56;94.86;101304.13;5044533;28;20044;-68
2021/10/18 07:52:50;;;;;;;55.05;33.40;;;;;;;9.66;93.42;101313.25;5041460;28;20032;-68
2021/10/18 07:55:17;;;;;;;61.92;34.38;;;;;;;9.77;92.95;101322.28;5026943;28;20418;-69
2021/10/18 07:57:49;;;;;;;57.28;33.90;;;;;;;9.85;92.41;101319.94;5039668;28;20017;-68
2021/10/18 08:00:16;;;;;;;54.53;33.95;;;;;;;9.94;92.28;101322.00;5029160;28;20494;-69
2021/10/18 08:02:41;;;;;;;53.13;35.33;;;;;;;10.01;92.14;101319.72;5028272;28;20041;-70
2021/10/18 08:05:08;;;;;;;57.55;36.83;;;;;;;10.08;91.88;101321.03;5025692;28;20021;-68
2021/10/18 08:07:37;;;;;;;54.35;33.85;;;;;;;10.11;91.73;101318.16;5025739;28;20431;-68
2021/10/18 08:10:06;;;;;;;44.75;31.27;;;;;;;10.17;91.87;101317.72;5026706;28;20025;-68
2021/10/18 08:12:33;;;;;;;51.90;32.45;;;;;;;10.29;91.92;101323.06;5045028;28;20031;-68
2021/10/18 08:14:58;;;;;;;48.38;30.77;;;;;;;10.38;91.58;101325.09;5044128;28;20020;-68
2021/10/18 08:17:24;;;;;;;54.00;31.67;;;;;;;10.46;91.34;101320.06;5045767;28;20059;-68
2021/10/18 08:19:50;;;;;;;49.72;32.60;;;;;;;10.52;91.16;101325.00;5045613;28;20017;-68
2021/10/18 08:22:16;;;;;;;53.53;33.40;;;;;;;10.65;89.74;101328.53;5027216;28;20033;-68
2021/10/18 08:24:41;;;;;;;52.50;33.35;;;;;;;10.75;89.15;101326.88;5025684;28;20467;-68
2021/10/18 08:27:07;;;;;;;52.60;31.73;;;;;;;10.84;88.90;101318.13;5036712;28;20921;-68
2021/10/18 08:29:32;;;;;;;41.50;28.02;;;;;;;10.94;88.58;101321.03;5044960;28;20037;-68
2021/10/18 08:31:58;;;;;;;42.10;27.60;;;;;;;11.03;88.10;101326.56;5045613;28;20092;-68
2021/10/18 08:34:23;;;;;;;42.00;25.67;;;;;;;11.06;87.24;101310.22;5045343;28;20107;-68
2021/10/18 08:36:48;;;;;;;37.05;24.38;;;;;;;11.21;86.96;101308.22;5044619;28;20021;-68
2021/10/18 08:42:03;;;;;;;35.75;23.67;;;;;;;11.57;83.10;101322.44;5042763;28;20156;-68
2021/10/18 08:44:29;;;;;;;35.03;24.75;;;;;;;11.70;82.72;101321.53;5037745;28;20080;-68
2021/10/18 08:46:59;;;;;;;34.83;24.23;;;;;;;11.84;81.49;101327.56;5031810;28;20479;-68
2021/10/18 08:49:25;;;;;;;35.83;24.08;;;;;;;12.00;81.56;101325.41;5039539;28;20029;-68
2021/10/18 08:51:50;;;;;;;38.10;22.63;;;;;;;12.15;80.17;101324.19;5029043;28;20052;-67
2021/10/18 08:54:17;;;;;;;36.60;23.23;;;;;;;12.31;78.34;101319.31;5037341;28;20056;-68
2021/10/18 08:56:43;;;;;;;37.72;23.63;;;;;;;12.48;77.86;101324.22;5047361;28;20479;-68
2021/10/18 08:59:09;;;;;;;34.65;23.70;;;;;;;12.63;76.60;101324.81;5030825;28;20048;-69
2021/10/18 09:01:49;;;;;;;34.92;22.25;;;;;;;12.77;75.59;101311.97;5048177;28;20494;-68
2021/10/18 09:04:24;;;;;;;35.90;22.08;;;;;;;12.98;73.61;101309.34;5030224;28;20040;-69
2021/10/18 09:06:50;;;;;;;30.85;21.13;;;;;;;13.30;71.87;101315.69;5035571;28;20027;-69
2021/10/18 09:09:18;;;;;;;28.55;19.10;;;;;;;13.58;69.77;101307.81;5028364;28;20091;-69
2021/10/18 09:11:47;;;;;;;28.17;17.95;;;;;;;14.00;67.66;101322.22;5028506;28;20108;-69
2021/10/18 09:14:13;;;;;;;25.90;16.63;;;;;;;14.61;64.38;101317.72;5027720;28;20056;-68
2021/10/18 09:16:42;;;;;;;24.20;15.88;;;;;;;15.63;61.29;101302.84;5028276;28;20313;-68
2021/10/18 09:19:11;;;;;;;23.73;15.13;;;;;;;16.81;56.72;101316.69;5027783;28;20025;-69
2021/10/18 09:21:42;;;;;;;23.85;14.55;;;;;;;18.08;52.55;101310.03;5028933;28;20025;-69
2021/10/18 09:24:09;;;;;;;20.58;15.25;;;;;;;19.19;49.07;101295.31;5041375;28;20059;-69
2021/10/18 09:26:37;;;;;;;21.80;14.20;;;;;;;20.21;46.59;101285.72;5048416;28;20072;-69
2021/10/18 09:29:15;;;;;;;20.05;14.00;;;;;;;21.03;43.64;101291.59;5048622;28;20020;-69
2021/10/18 09:31:44;;;;;;;17.52;11.85;;;;;;;21.87;41.55;101285.06;5048650;28;20024;-69
2021/10/18 09:34:17;;;;;;;15.80;9.80;;;;;;;22.62;39.14;101280.38;5048384;28;20029;-68
2021/10/18 09:36:45;;;;;;;14.75;9.90;;;;;;;23.17;37.59;101283.41;5033702;28;20023;-69
2021/10/18 09:39:13;;;;;;;15.00;10.85;;;;;;;23.59;36.36;101277.16;5028377;28;20064;-69
2021/10/18 09:42:05;;;;;;;17.48;11.38;;;;;;;23.73;35.73;101263.38;5031880;28;20422;-68
2021/10/18 10:52:56;;;;;;;14.32;6.43;;;;;;;17.01;47.90;101253.22;5046485;28;20440;-68
2021/10/18 10:55:24;;;;;;;10.80;7.03;;;;;;;16.89;48.63;101254.44;5029355;28;20467;-68
2021/10/18 10:57:53;;;;;;;13.52;7.18;;;;;;;16.78;48.64;101246.53;5045300;28;20056;-68
2021/10/18 11:00:41;;;;;;;13.05;7.15;;;;;;;16.70;48.26;101260.00;5046386;28;20024;-69
2021/10/18 11:03:35;;;;;;;11.73;7.18;;;;;;;16.63;48.87;101251.59;5046205;28;20067;-68
2021/10/18 11:06:12;;;;;;;10.70;7.63;;;;;;;16.57;49.42;101254.06;5028248;28;20486;-68
2021/10/18 11:08:46;;;;;;;12.07;7.40;;;;;;;16.53;48.82;101248.09;5026328;28;20025;-68
2021/10/18 11:11:19;;;;;;;11.07;7.30;;;;;;;16.49;49.57;101252.09;5026125;28;20029;-68
2021/10/18 11:13:56;;;;;;;10.40;7.28;;;;;;;16.50;49.39;101252.94;5026499;28;20117;-68
2021/10/18 11:16:24;;;;;;;12.35;6.78;;;;;;;16.51;49.60;101254.66;5025957;28;20450;-69
2021/10/18 11:18:55;;;;;;;13.23;7.93;;;;;;;16.41;49.46;101243.84;5024934;28;20017;-68
2021/10/18 11:21:29;;;;;;;14.07;8.07;;;;;;;16.44;49.68;101248.16;5024748;28;20025;-68
2021/10/18 11:24:09;;;;;;;11.88;7.90;;;;;;;16.42;50.06;101259.09;5032621;28;20133;-68
2021/10/18 11:26:40;;;;;;;11.48;7.05;;;;;;;16.44;49.80;101256.28;5046193;28;20029;-68
2021/10/18 11:29:11;;;;;;;13.27;7.90;;;;;;;16.43;49.73;101239.16;5025728;28;20041;-68
2021/10/18 11:31:40;;;;;;;12.60;8.27;;;;;;;16.47;49.36;101248.69;5025984;28;20111;-68
2021/10/18 11:34:08;;;;;;;16.70;7.65;;;;;;;16.44;49.88;101245.44;5025686;28;20021;-69
2021/10/18 11:36:36;;;;;;;11.07;7.95;;;;;;;16.43;49.93;101244.59;5026329;28;20360;-68
2021/10/18 11:39:26;;;;;;;10.82;7.47;;;;;;;16.40;49.66;101242.13;5026520;28;20052;-68
2021/10/18 11:42:13;;;;;;;13.15;6.97;;;;;;;16.38;49.64;101235.19;5023138;28;20536;-68
2021/10/18 11:44:42;;;;;;;10.45;7.00;;;;;;;16.39;49.85;101245.84;5033029;28;20131;-68
2021/10/18 11:47:31;;;;;;;12.18;7.88;;;;;;;16.40;49.72;101239.44;5023328;28;20363;-68
2021/10/18 11:50:15;;;;;;;12.60;7.70;;;;;;;16.39;50.02;101236.88;5025939;28;20052;-68
2021/10/18 11:52:40;;;;;;;13.98;7.93;;;;;;;16.36;49.69;101232.63;5025886;28;20379;-68
2021/10/18 11:55:08;;;;;;;8.77;6.90;;;;;;;16.33;50.12;101222.09;5044273;28;20055;-67
2021/10/18 11:57:36;;;;;;;12.10;7.45;;;;;;;16.43;49.55;101232.88;5044711;28;20039;-68
2021/10/18 12:00:02;;;;;;;14.25;7.70;;;;;;;16.34;49.68;101223.78;5046135;28;20025;-68
2021/10/18 12:02:29;;;;;;;11.30;7.32;;;;;;;16.39;49.92;101231.44;5045379;28;20462;-68
2021/10/18 12:04:59;;;;;;;13.38;7.30;;;;;;;16.39;50.17;101231.44;5045559;28;20165;-68
2021/10/18 12:07:41;;;;;;;13.85;7.45;;;;;;;16.39;50.34;101237.72;5045150;28;20025;-68
2021/10/18 12:10:20;;;;;;;10.93;7.10;;;;;;;16.39;50.47;101237.72;5026753;28;20031;-68
2021/10/18 12:13:04;;;;;;;9.98;7.38;;;;;;;16.41;50.64;101241.13;5026002;28;20025;-68
2021/10/18 12:15:32;;;;;;;11.13;7.45;;;;;;;16.44;49.93;101232.72;5043791;28;20107;-68
2021/10/18 12:17:58;;;;;;;12.80;7.57;;;;;;;16.49;50.29;101235.84;5046782;28;20056;-68
2021/10/18 12:20:24;;;;;;;13.77;7.90;;;;;;;16.47;50.61;101229.72;5048099;28;20493;-68
2021/10/18 12:23:05;;;;;;;12.68;7.72;;;;;;;16.44;49.87;101231.91;5049406;28;20150;-68
2021/10/18 12:25:35;;;;;;;13.88;7.78;;;;;;;16.34;49.86;101209.41;5037023;28;20041;-68